sensor_id;sensor_type;location;lat;lon;timestamp;temperature;humidity
28654;DHT22;24320;56.980;24.336;2022-09-09T00:09:19;5.60;99.90
28654;DHT22;24320;56.980;24.336;2022-09-09T00:12:00;5.60;99.90
28654;DHT22;24320;56.980;24.336;2022-09-09T00:15:18;5.70;99.90
28654;DHT22;24320;56.980;24.336;2022-09-09T00:17:48;5.70;99.90
28654;DHT22;24320;56.980;24.336;2022-09-09T00:23:29;5.60;99.90
28654;DHT22;24320;56.980;24.336;2022-09-09T00:31:35;5.60;99.90
28654;DHT22;24320;56.980;24.336;2022-09-09T00:34:27;5.60;99.90
28654;DHT22;24320;56.980;24.336;2022-09-09T00:36:56;5.60;99.90
28654;DHT22;24320;56.980;24.336;2022-09-09T00:39:36;5.50;99.90
28654;DHT22;24320;56.980;24.336;2022-09-09T00:42:17;5.50;99.90
28654;DHT22;24320;56.980;24.336;2022-09-09T00:44:52;5.40;99.90
28654;DHT22;24320;56.980;24.336;2022-09-09T00:48:05;5.30;99.90
28654;DHT22;24320;56.980;24.336;2022-09-09T00:53:21;5.30;99.90
28654;DHT22;24320;56.980;24.336;2022-09-09T00:56:01;5.30;99.90
28654;DHT22;24320;56.980;24.336;2022-09-09T00:58:33;5.30;99.90
28654;DHT22;24320;56.980;24.336;2022-09-09T01:01:07;5.30;99.90
28654;DHT22;24320;56.980;24.336;2022-09-09T01:03:42;5.40;99.90
28654;DHT22;24320;56.980;24.336;2022-09-09T01:06:34;5.30;99.90
28654;DHT22;24320;56.980;24.336;2022-09-09T01:12:15;5.20;99.90
28654;DHT22;24320;56.980;24.336;2022-09-09T01:14:47;5.20;99.90
28654;DHT22;24320;56.980;24.336;2022-09-09T01:17:21;5.20;99.90
28654;DHT22;24320;56.980;24.336;2022-09-09T01:22:37;5.30;99.90
28654;DHT22;24320;56.980;24.336;2022-09-09T01:27:51;5.30;99.90
28654;DHT22;24320;56.980;24.336;2022-09-09T01:30:21;5.20;99.90
28654;DHT22;24320;56.980;24.336;2022-09-09T01:32:55;5.30;99.90
28654;DHT22;24320;56.980;24.336;2022-09-09T01:37:55;5.30;99.90
28654;DHT22;24320;56.980;24.336;2022-09-09T01:40:23;5.20;99.90
28654;DHT22;24320;56.980;24.336;2022-09-09T01:42:52;5.10;99.90
28654;DHT22;24320;56.980;24.336;2022-09-09T01:45:19;5.10;99.90
28654;DHT22;24320;56.980;24.336;2022-09-09T01:47:46;5.00;99.90
28654;DHT22;24320;56.980;24.336;2022-09-09T01:50:15;4.90;99.90
28654;DHT22;24320;56.980;24.336;2022-09-09T01:52:44;4.90;99.90
28654;DHT22;24320;56.980;24.336;2022-09-09T01:55:12;4.80;99.90
28654;DHT22;24320;56.980;24.336;2022-09-09T02:00:43;4.60;99.90
28654;DHT22;24320;56.980;24.336;2022-09-09T02:03:27;4.50;99.90
28654;DHT22;24320;56.980;24.336;2022-09-09T02:08:52;4.50;99.90
28654;DHT22;24320;56.980;24.336;2022-09-09T02:11:22;4.60;99.90
28654;DHT22;24320;56.980;24.336;2022-09-09T02:14:12;4.60;99.90
28654;DHT22;24320;56.980;24.336;2022-09-09T02:21:51;4.80;99.90
28654;DHT22;24320;56.980;24.336;2022-09-09T02:24:20;4.90;99.90
28654;DHT22;24320;56.980;24.336;2022-09-09T02:26:50;4.80;99.90
28654;DHT22;24320;56.980;24.336;2022-09-09T02:29:19;4.90;99.90
28654;DHT22;24320;56.980;24.336;2022-09-09T02:31:49;4.90;99.90
28654;DHT22;24320;56.980;24.336;2022-09-09T02:34:20;4.80;99.90
28654;DHT22;24320;56.980;24.336;2022-09-09T02:36:49;4.80;99.90
28654;DHT22;24320;56.980;24.336;2022-09-09T02:39:18;4.80;99.90
28654;DHT22;24320;56.980;24.336;2022-09-09T02:41:46;4.80;99.90
28654;DHT22;24320;56.980;24.336;2022-09-09T02:44:16;4.80;99.90
28654;DHT22;24320;56.980;24.336;2022-09-09T02:49:42;4.80;99.90
28654;DHT22;24320;56.980;24.336;2022-09-09T02:52:14;4.70;99.90
28654;DHT22;24320;56.980;24.336;2022-09-09T02:54:43;4.70;99.90
28654;DHT22;24320;56.980;24.336;2022-09-09T02:57:23;4.70;99.90
28654;DHT22;24320;56.980;24.336;2022-09-09T02:59:51;4.70;99.90
28654;DHT22;24320;56.980;24.336;2022-09-09T03:02:21;4.60;99.90
28654;DHT22;24320;56.980;24.336;2022-09-09T03:04:48;4.60;99.90
28654;DHT22;24320;56.980;24.336;2022-09-09T03:07:19;4.50;99.90
28654;DHT22;24320;56.980;24.336;2022-09-09T03:09:46;4.50;99.90
28654;DHT22;24320;56.980;24.336;2022-09-09T03:12:13;4.40;99.90
28654;DHT22;24320;56.980;24.336;2022-09-09T03:14:40;4.40;99.90
28654;DHT22;24320;56.980;24.336;2022-09-09T03:17:07;4.40;99.90
28654;DHT22;24320;56.980;24.336;2022-09-09T03:19:35;4.40;99.90
28654;DHT22;24320;56.980;24.336;2022-09-09T03:22:03;4.30;99.90
28654;DHT22;24320;56.980;24.336;2022-09-09T03:24:31;4.30;99.90
28654;DHT22;24320;56.980;24.336;2022-09-09T03:26:57;4.30;99.90
28654;DHT22;24320;56.980;24.336;2022-09-09T03:29:24;4.30;99.90
28654;DHT22;24320;56.980;24.336;2022-09-09T03:31:51;4.30;99.90
28654;DHT22;24320;56.980;24.336;2022-09-09T03:34:18;4.30;99.90
28654;DHT22;24320;56.980;24.336;2022-09-09T03:36:45;4.30;99.90
28654;DHT22;24320;56.980;24.336;2022-09-09T03:39:12;4.20;99.90
28654;DHT22;24320;56.980;24.336;2022-09-09T03:41:40;4.20;99.90
28654;DHT22;24320;56.980;24.336;2022-09-09T03:44:07;4.30;99.90
28654;DHT22;24320;56.980;24.336;2022-09-09T03:46:34;4.40;99.90
28654;DHT22;24320;56.980;24.336;2022-09-09T03:49:01;4.40;99.90
28654;DHT22;24320;56.980;24.336;2022-09-09T03:51:28;4.40;99.90
28654;DHT22;24320;56.980;24.336;2022-09-09T03:53:56;4.50;99.90
28654;DHT22;24320;56.980;24.336;2022-09-09T03:56:24;4.50;99.90
28654;DHT22;24320;56.980;24.336;2022-09-09T03:58:51;4.60;99.90
28654;DHT22;24320;56.980;24.336;2022-09-09T04:01:18;4.60;99.90
28654;DHT22;24320;56.980;24.336;2022-09-09T04:03:45;4.60;99.90
28654;DHT22;24320;56.980;24.336;2022-09-09T04:06:13;4.60;99.90
28654;DHT22;24320;56.980;24.336;2022-09-09T04:08:41;4.70;99.90
28654;DHT22;24320;56.980;24.336;2022-09-09T04:11:08;4.60;99.90
28654;DHT22;24320;56.980;24.336;2022-09-09T04:13:37;4.70;99.90
28654;DHT22;24320;56.980;24.336;2022-09-09T04:16:05;4.70;99.90
28654;DHT22;24320;56.980;24.336;2022-09-09T04:18:33;4.80;99.90
28654;DHT22;24320;56.980;24.336;2022-09-09T04:21:01;4.80;99.90
28654;DHT22;24320;56.980;24.336;2022-09-09T04:23:30;4.80;99.90
28654;DHT22;24320;56.980;24.336;2022-09-09T04:25:58;4.80;99.90
28654;DHT22;24320;56.980;24.336;2022-09-09T04:28:27;4.90;99.90
28654;DHT22;24320;56.980;24.336;2022-09-09T04:30:55;4.90;99.90
28654;DHT22;24320;56.980;24.336;2022-09-09T04:33:24;4.90;99.90
28654;DHT22;24320;56.980;24.336;2022-09-09T04:35:53;5.00;99.90
28654;DHT22;24320;56.980;24.336;2022-09-09T04:38:21;5.10;99.90
28654;DHT22;24320;56.980;24.336;2022-09-09T04:40:51;5.20;99.90
28654;DHT22;24320;56.980;24.336;2022-09-09T04:43:18;5.30;99.90
28654;DHT22;24320;56.980;24.336;2022-09-09T04:45:48;5.50;99.90
28654;DHT22;24320;56.980;24.336;2022-09-09T04:48:15;5.80;99.90
28654;DHT22;24320;56.980;24.336;2022-09-09T04:50:42;6.00;99.90
28654;DHT22;24320;56.980;24.336;2022-09-09T04:53:09;6.20;99.90
28654;DHT22;24320;56.980;24.336;2022-09-09T04:55:36;6.40;99.90
28654;DHT22;24320;56.980;24.336;2022-09-09T04:58:05;6.50;99.90
28654;DHT22;24320;56.980;24.336;2022-09-09T05:03:05;7.30;99.90
28654;DHT22;24320;56.980;24.336;2022-09-09T05:05:33;7.60;99.90
28654;DHT22;24320;56.980;24.336;2022-09-09T05:08:02;7.80;99.90
28654;DHT22;24320;56.980;24.336;2022-09-09T05:10:29;8.30;99.90
28654;DHT22;24320;56.980;24.336;2022-09-09T05:12:56;8.90;99.90
28654;DHT22;24320;56.980;24.336;2022-09-09T05:15:23;9.50;99.90
28654;DHT22;24320;56.980;24.336;2022-09-09T05:17:50;10.30;99.90
28654;DHT22;24320;56.980;24.336;2022-09-09T05:20:19;11.00;99.90
28654;DHT22;24320;56.980;24.336;2022-09-09T05:22:46;11.40;99.90
28654;DHT22;24320;56.980;24.336;2022-09-09T05:25:13;11.80;99.90
28654;DHT22;24320;56.980;24.336;2022-09-09T05:27:40;11.80;99.90
28654;DHT22;24320;56.980;24.336;2022-09-09T05:30:07;12.00;99.90
28654;DHT22;24320;56.980;24.336;2022-09-09T05:32:35;12.00;99.90
28654;DHT22;24320;56.980;24.336;2022-09-09T05:35:02;12.20;99.90
28654;DHT22;24320;56.980;24.336;2022-09-09T05:37:30;12.30;99.90
28654;DHT22;24320;56.980;24.336;2022-09-09T05:39:57;12.30;99.90
28654;DHT22;24320;56.980;24.336;2022-09-09T05:42:24;12.60;99.90
28654;DHT22;24320;56.980;24.336;2022-09-09T05:44:51;12.70;99.90
28654;DHT22;24320;56.980;24.336;2022-09-09T05:47:20;12.80;99.90
28654;DHT22;24320;56.980;24.336;2022-09-09T05:49:47;12.80;99.90
28654;DHT22;24320;56.980;24.336;2022-09-09T05:52:15;12.70;99.90
28654;DHT22;24320;56.980;24.336;2022-09-09T05:54:42;12.80;99.90
28654;DHT22;24320;56.980;24.336;2022-09-09T05:57:09;12.70;99.90
28654;DHT22;24320;56.980;24.336;2022-09-09T05:59:36;12.60;99.90
28654;DHT22;24320;56.980;24.336;2022-09-09T06:02:03;12.80;99.90
28654;DHT22;24320;56.980;24.336;2022-09-09T06:04:31;12.90;99.90
28654;DHT22;24320;56.980;24.336;2022-09-09T06:06:58;12.90;99.90
28654;DHT22;24320;56.980;24.336;2022-09-09T06:09:25;13.00;99.90
28654;DHT22;24320;56.980;24.336;2022-09-09T06:11:52;13.00;99.90
28654;DHT22;24320;56.980;24.336;2022-09-09T06:14:20;12.90;99.90
28654;DHT22;24320;56.980;24.336;2022-09-09T06:16:48;13.00;99.90
28654;DHT22;24320;56.980;24.336;2022-09-09T06:19:16;13.10;99.90
28654;DHT22;24320;56.980;24.336;2022-09-09T06:21:43;13.40;99.90
28654;DHT22;24320;56.980;24.336;2022-09-09T06:24:11;13.50;99.90
28654;DHT22;24320;56.980;24.336;2022-09-09T06:26:40;13.60;99.90
28654;DHT22;24320;56.980;24.336;2022-09-09T06:29:08;13.70;99.90
28654;DHT22;24320;56.980;24.336;2022-09-09T06:31:36;13.90;99.90
28654;DHT22;24320;56.980;24.336;2022-09-09T06:34:07;14.10;99.90
28654;DHT22;24320;56.980;24.336;2022-09-09T06:39:12;14.80;99.90
28654;DHT22;24320;56.980;24.336;2022-09-09T06:41:42;15.00;99.90
28654;DHT22;24320;56.980;24.336;2022-09-09T06:44:09;15.50;99.90
28654;DHT22;24320;56.980;24.336;2022-09-09T06:46:38;15.80;99.90
28654;DHT22;24320;56.980;24.336;2022-09-09T06:49:07;15.90;99.90
28654;DHT22;24320;56.980;24.336;2022-09-09T06:51:37;16.00;99.90
28654;DHT22;24320;56.980;24.336;2022-09-09T06:54:10;16.10;99.90
28654;DHT22;24320;56.980;24.336;2022-09-09T06:56:39;16.20;99.90
28654;DHT22;24320;56.980;24.336;2022-09-09T06:59:10;16.50;99.90
28654;DHT22;24320;56.980;24.336;2022-09-09T07:01:41;17.00;98.60
28654;DHT22;24320;56.980;24.336;2022-09-09T07:04:08;17.20;99.20
28654;DHT22;24320;56.980;24.336;2022-09-09T07:06:38;17.30;95.90
28654;DHT22;24320;56.980;24.336;2022-09-09T07:09:08;17.10;96.20
28654;DHT22;24320;56.980;24.336;2022-09-09T07:11:45;16.80;96.30
28654;DHT22;24320;56.980;24.336;2022-09-09T07:14:12;16.60;95.90
28654;DHT22;24320;56.980;24.336;2022-09-09T07:16:41;16.50;95.40
28654;DHT22;24320;56.980;24.336;2022-09-09T07:19:08;16.20;96.50
28654;DHT22;24320;56.980;24.336;2022-09-09T07:21:36;16.10;95.80
28654;DHT22;24320;56.980;24.336;2022-09-09T07:24:03;16.00;97.70
28654;DHT22;24320;56.980;24.336;2022-09-09T07:26:34;16.20;95.90
28654;DHT22;24320;56.980;24.336;2022-09-09T07:29:01;16.10;96.60
28654;DHT22;24320;56.980;24.336;2022-09-09T07:31:30;16.30;97.30
28654;DHT22;24320;56.980;24.336;2022-09-09T07:33:58;16.40;95.60
28654;DHT22;24320;56.980;24.336;2022-09-09T07:36:29;16.30;95.10
28654;DHT22;24320;56.980;24.336;2022-09-09T07:39:05;16.00;95.20
28654;DHT22;24320;56.980;24.336;2022-09-09T07:41:35;15.80;96.20
28654;DHT22;24320;56.980;24.336;2022-09-09T07:44:13;15.80;95.00
28654;DHT22;24320;56.980;24.336;2022-09-09T07:46:41;15.50;95.20
28654;DHT22;24320;56.980;24.336;2022-09-09T07:49:09;15.50;96.60
28654;DHT22;24320;56.980;24.336;2022-09-09T07:51:39;15.60;95.60
28654;DHT22;24320;56.980;24.336;2022-09-09T07:54:09;15.50;98.40
28654;DHT22;24320;56.980;24.336;2022-09-09T07:56:38;15.50;97.90
28654;DHT22;24320;56.980;24.336;2022-09-09T07:59:06;15.30;95.70
28654;DHT22;24320;56.980;24.336;2022-09-09T08:01:37;14.90;95.90
28654;DHT22;24320;56.980;24.336;2022-09-09T08:04:08;14.80;96.60
28654;DHT22;24320;56.980;24.336;2022-09-09T08:06:38;14.60;95.80
28654;DHT22;24320;56.980;24.336;2022-09-09T08:09:07;14.60;96.30
28654;DHT22;24320;56.980;24.336;2022-09-09T08:11:34;14.70;97.70
28654;DHT22;24320;56.980;24.336;2022-09-09T08:14:06;14.80;98.30
28654;DHT22;24320;56.980;24.336;2022-09-09T08:16:36;14.80;96.30
28654;DHT22;24320;56.980;24.336;2022-09-09T08:19:03;14.80;97.90
28654;DHT22;24320;56.980;24.336;2022-09-09T08:21:31;14.90;97.70
28654;DHT22;24320;56.980;24.336;2022-09-09T08:24:00;14.80;95.30
28654;DHT22;24320;56.980;24.336;2022-09-09T08:26:30;14.70;96.20
28654;DHT22;24320;56.980;24.336;2022-09-09T08:28:59;14.50;95.50
28654;DHT22;24320;56.980;24.336;2022-09-09T08:31:40;14.50;95.70
28654;DHT22;24320;56.980;24.336;2022-09-09T08:34:09;14.50;97.00
28654;DHT22;24320;56.980;24.336;2022-09-09T08:36:43;14.60;97.70
28654;DHT22;24320;56.980;24.336;2022-09-09T08:39:12;14.80;97.20
28654;DHT22;24320;56.980;24.336;2022-09-09T08:50:37;14.50;95.90
28654;DHT22;24320;56.980;24.336;2022-09-09T08:53:28;14.50;97.40
28654;DHT22;24320;56.980;24.336;2022-09-09T08:56:02;14.60;96.40
28654;DHT22;24320;56.980;24.336;2022-09-09T08:58:35;14.60;95.70
28654;DHT22;24320;56.980;24.336;2022-09-09T09:03:43;14.50;95.50
28654;DHT22;24320;56.980;24.336;2022-09-09T09:06:42;14.50;96.50
28654;DHT22;24320;56.980;24.336;2022-09-09T09:12:06;14.70;97.00
28654;DHT22;24320;56.980;24.336;2022-09-09T09:14:37;14.90;95.30
28654;DHT22;24320;56.980;24.336;2022-09-09T09:17:18;15.10;96.30
28654;DHT22;24320;56.980;24.336;2022-09-09T09:19:48;15.10;95.90
28654;DHT22;24320;56.980;24.336;2022-09-09T09:22:21;15.20;95.80
28654;DHT22;24320;56.980;24.336;2022-09-09T09:29:55;15.00;95.60
28654;DHT22;24320;56.980;24.336;2022-09-09T09:32:56;15.20;95.70
28654;DHT22;24320;56.980;24.336;2022-09-09T09:35:24;15.30;95.40
28654;DHT22;24320;56.980;24.336;2022-09-09T09:37:52;15.40;96.50
28654;DHT22;24320;56.980;24.336;2022-09-09T09:40:49;15.50;94.90
28654;DHT22;24320;56.980;24.336;2022-09-09T09:43:24;15.50;94.20
28654;DHT22;24320;56.980;24.336;2022-09-09T09:45:52;15.50;93.80
28654;DHT22;24320;56.980;24.336;2022-09-09T09:48:42;15.50;95.50
28654;DHT22;24320;56.980;24.336;2022-09-09T09:51:11;15.50;92.70
28654;DHT22;24320;56.980;24.336;2022-09-09T09:53:44;15.40;95.00
28654;DHT22;24320;56.980;24.336;2022-09-09T09:56:13;15.50;95.30
28654;DHT22;24320;56.980;24.336;2022-09-09T10:01:27;15.50;95.20
28654;DHT22;24320;56.980;24.336;2022-09-09T10:03:59;15.60;95.70
28654;DHT22;24320;56.980;24.336;2022-09-09T10:06:33;15.70;94.90
28654;DHT22;24320;56.980;24.336;2022-09-09T10:09:01;15.70;94.00
28654;DHT22;24320;56.980;24.336;2022-09-09T10:14:20;15.70;93.50
28654;DHT22;24320;56.980;24.336;2022-09-09T10:20:00;15.50;92.50
28654;DHT22;24320;56.980;24.336;2022-09-09T10:22:31;15.20;94.00
28654;DHT22;24320;56.980;24.336;2022-09-09T10:34:27;15.20;93.90
28654;DHT22;24320;56.980;24.336;2022-09-09T10:40:26;15.40;95.70
28654;DHT22;24320;56.980;24.336;2022-09-09T10:43:37;15.50;94.20
28654;DHT22;24320;56.980;24.336;2022-09-09T10:46:23;15.70;94.70
28654;DHT22;24320;56.980;24.336;2022-09-09T10:54:37;15.70;95.30
28654;DHT22;24320;56.980;24.336;2022-09-09T10:57:22;15.80;94.60
28654;DHT22;24320;56.980;24.336;2022-09-09T10:59:55;15.90;94.00
28654;DHT22;24320;56.980;24.336;2022-09-09T11:02:31;15.90;92.80
28654;DHT22;24320;56.980;24.336;2022-09-09T11:08:03;15.80;94.20
28654;DHT22;24320;56.980;24.336;2022-09-09T11:16:27;16.00;94.00
28654;DHT22;24320;56.980;24.336;2022-09-09T11:19:01;16.00;92.60
28654;DHT22;24320;56.980;24.336;2022-09-09T11:21:49;15.90;92.90
28654;DHT22;24320;56.980;24.336;2022-09-09T11:24:31;15.90;92.60
28654;DHT22;24320;56.980;24.336;2022-09-09T11:27:21;15.90;93.20
28654;DHT22;24320;56.980;24.336;2022-09-09T11:30:18;15.80;92.80
28654;DHT22;24320;56.980;24.336;2022-09-09T11:38:47;15.80;92.80
28654;DHT22;24320;56.980;24.336;2022-09-09T11:41:15;15.80;92.90
28654;DHT22;24320;56.980;24.336;2022-09-09T11:43:52;15.80;94.20
28654;DHT22;24320;56.980;24.336;2022-09-09T11:46:32;15.80;92.60
28654;DHT22;24320;56.980;24.336;2022-09-09T11:49:04;15.80;93.50
28654;DHT22;24320;56.980;24.336;2022-09-09T11:51:33;15.90;92.70
28654;DHT22;24320;56.980;24.336;2022-09-09T11:56:56;15.80;93.20
28654;DHT22;24320;56.980;24.336;2022-09-09T11:59:31;15.90;92.60
28654;DHT22;24320;56.980;24.336;2022-09-09T12:04:32;16.10;92.90
28654;DHT22;24320;56.980;24.336;2022-09-09T12:07:03;16.10;92.00
28654;DHT22;24320;56.980;24.336;2022-09-09T12:19:41;16.20;90.60
28654;DHT22;24320;56.980;24.336;2022-09-09T12:30:19;16.20;92.30
28654;DHT22;24320;56.980;24.336;2022-09-09T12:33:00;16.30;91.00
28654;DHT22;24320;56.980;24.336;2022-09-09T12:35:28;16.30;91.30
28654;DHT22;24320;56.980;24.336;2022-09-09T12:38:02;16.30;91.70
28654;DHT22;24320;56.980;24.336;2022-09-09T12:40:34;16.40;92.50
28654;DHT22;24320;56.980;24.336;2022-09-09T12:43:20;16.50;91.20
28654;DHT22;24320;56.980;24.336;2022-09-09T12:45:49;16.60;90.70
28654;DHT22;24320;56.980;24.336;2022-09-09T12:48:32;16.50;90.20
28654;DHT22;24320;56.980;24.336;2022-09-09T12:51:01;16.40;90.00
28654;DHT22;24320;56.980;24.336;2022-09-09T12:53:31;16.30;89.60
28654;DHT22;24320;56.980;24.336;2022-09-09T12:56:02;16.30;91.20
28654;DHT22;24320;56.980;24.336;2022-09-09T12:58:31;16.30;91.20
28654;DHT22;24320;56.980;24.336;2022-09-09T13:03:33;16.40;91.50
28654;DHT22;24320;56.980;24.336;2022-09-09T13:06:21;16.50;91.90
28654;DHT22;24320;56.980;24.336;2022-09-09T13:08:58;16.50;90.40
28654;DHT22;24320;56.980;24.336;2022-09-09T13:11:35;16.50;90.60
28654;DHT22;24320;56.980;24.336;2022-09-09T13:14:03;16.50;90.10
28654;DHT22;24320;56.980;24.336;2022-09-09T13:16:33;16.50;90.70
28654;DHT22;24320;56.980;24.336;2022-09-09T13:19:17;16.50;90.80
28654;DHT22;24320;56.980;24.336;2022-09-09T13:21:44;16.50;91.30
28654;DHT22;24320;56.980;24.336;2022-09-09T13:27:03;16.50;90.90
28654;DHT22;24320;56.980;24.336;2022-09-09T13:29:31;16.50;90.50
28654;DHT22;24320;56.980;24.336;2022-09-09T13:32:06;16.50;90.00
28654;DHT22;24320;56.980;24.336;2022-09-09T13:34:39;16.40;89.90
28654;DHT22;24320;56.980;24.336;2022-09-09T13:37:14;16.30;90.80
28654;DHT22;24320;56.980;24.336;2022-09-09T13:39:51;16.40;91.10
28654;DHT22;24320;56.980;24.336;2022-09-09T13:42:40;16.40;91.00
28654;DHT22;24320;56.980;24.336;2022-09-09T13:45:22;16.50;91.20
28654;DHT22;24320;56.980;24.336;2022-09-09T13:47:50;16.50;90.10
28654;DHT22;24320;56.980;24.336;2022-09-09T13:50:26;16.40;90.20
28654;DHT22;24320;56.980;24.336;2022-09-09T13:52:55;16.30;90.50
28654;DHT22;24320;56.980;24.336;2022-09-09T13:55:27;16.40;90.80
28654;DHT22;24320;56.980;24.336;2022-09-09T13:58:02;16.40;90.60
28654;DHT22;24320;56.980;24.336;2022-09-09T14:00:30;16.40;91.20
28654;DHT22;24320;56.980;24.336;2022-09-09T14:02:58;16.40;90.60
28654;DHT22;24320;56.980;24.336;2022-09-09T14:05:31;16.30;90.60
28654;DHT22;24320;56.980;24.336;2022-09-09T14:07:58;16.30;91.50
28654;DHT22;24320;56.980;24.336;2022-09-09T14:10:27;16.30;91.60
28654;DHT22;24320;56.980;24.336;2022-09-09T14:12:54;16.20;90.60
28654;DHT22;24320;56.980;24.336;2022-09-09T14:15:21;16.20;90.90
28654;DHT22;24320;56.980;24.336;2022-09-09T14:17:48;16.20;90.90
28654;DHT22;24320;56.980;24.336;2022-09-09T14:20:15;16.20;91.10
28654;DHT22;24320;56.980;24.336;2022-09-09T14:22:44;16.10;91.30
28654;DHT22;24320;56.980;24.336;2022-09-09T14:25:11;16.20;90.80
28654;DHT22;24320;56.980;24.336;2022-09-09T14:27:40;16.20;91.50
28654;DHT22;24320;56.980;24.336;2022-09-09T14:30:08;16.10;90.90
28654;DHT22;24320;56.980;24.336;2022-09-09T14:32:35;16.10;91.80
28654;DHT22;24320;56.980;24.336;2022-09-09T14:35:02;16.10;91.60
28654;DHT22;24320;56.980;24.336;2022-09-09T14:37:29;16.20;91.80
28654;DHT22;24320;56.980;24.336;2022-09-09T14:39:58;16.20;91.40
28654;DHT22;24320;56.980;24.336;2022-09-09T14:42:25;16.10;91.80
28654;DHT22;24320;56.980;24.336;2022-09-09T14:44:53;16.10;91.50
28654;DHT22;24320;56.980;24.336;2022-09-09T14:47:20;16.10;91.70
28654;DHT22;24320;56.980;24.336;2022-09-09T14:49:47;16.10;91.80
28654;DHT22;24320;56.980;24.336;2022-09-09T14:52:16;16.10;90.80
28654;DHT22;24320;56.980;24.336;2022-09-09T14:54:43;16.10;91.50
28654;DHT22;24320;56.980;24.336;2022-09-09T14:57:10;16.00;91.80
28654;DHT22;24320;56.980;24.336;2022-09-09T14:59:37;16.00;91.70
28654;DHT22;24320;56.980;24.336;2022-09-09T15:02:04;15.90;92.20
28654;DHT22;24320;56.980;24.336;2022-09-09T15:04:31;15.90;92.00
28654;DHT22;24320;56.980;24.336;2022-09-09T15:06:58;15.90;92.10
28654;DHT22;24320;56.980;24.336;2022-09-09T15:09:25;15.80;92.00
28654;DHT22;24320;56.980;24.336;2022-09-09T15:11:52;15.80;92.00
28654;DHT22;24320;56.980;24.336;2022-09-09T15:14:19;15.80;92.50
28654;DHT22;24320;56.980;24.336;2022-09-09T15:16:50;15.70;92.40
28654;DHT22;24320;56.980;24.336;2022-09-09T15:19:17;15.60;92.50
28654;DHT22;24320;56.980;24.336;2022-09-09T15:21:44;15.50;93.00
28654;DHT22;24320;56.980;24.336;2022-09-09T15:24:11;15.50;93.10
28654;DHT22;24320;56.980;24.336;2022-09-09T15:26:40;15.40;93.70
28654;DHT22;24320;56.980;24.336;2022-09-09T15:29:07;15.40;94.00
28654;DHT22;24320;56.980;24.336;2022-09-09T15:31:35;15.40;94.00
28654;DHT22;24320;56.980;24.336;2022-09-09T15:34:04;15.40;93.70
28654;DHT22;24320;56.980;24.336;2022-09-09T15:36:37;15.30;93.50
28654;DHT22;24320;56.980;24.336;2022-09-09T15:39:07;15.30;93.90
28654;DHT22;24320;56.980;24.336;2022-09-09T15:41:34;15.20;93.70
28654;DHT22;24320;56.980;24.336;2022-09-09T15:44:02;15.10;93.90
28654;DHT22;24320;56.980;24.336;2022-09-09T15:46:34;15.10;93.70
28654;DHT22;24320;56.980;24.336;2022-09-09T15:49:06;15.10;94.10
28654;DHT22;24320;56.980;24.336;2022-09-09T15:51:37;15.00;94.50
28654;DHT22;24320;56.980;24.336;2022-09-09T15:54:14;14.90;94.80
28654;DHT22;24320;56.980;24.336;2022-09-09T15:56:44;14.80;95.20
28654;DHT22;24320;56.980;24.336;2022-09-09T15:59:12;14.70;95.40
28654;DHT22;24320;56.980;24.336;2022-09-09T16:01:39;14.60;95.20
28654;DHT22;24320;56.980;24.336;2022-09-09T16:04:06;14.60;95.50
28654;DHT22;24320;56.980;24.336;2022-09-09T16:06:33;14.50;95.80
28654;DHT22;24320;56.980;24.336;2022-09-09T16:09:03;14.40;96.10
28654;DHT22;24320;56.980;24.336;2022-09-09T16:11:34;14.30;96.10
28654;DHT22;24320;56.980;24.336;2022-09-09T16:14:02;14.20;96.50
28654;DHT22;24320;56.980;24.336;2022-09-09T16:16:30;14.10;97.00
28654;DHT22;24320;56.980;24.336;2022-09-09T16:21:35;13.90;97.60
28654;DHT22;24320;56.980;24.336;2022-09-09T16:24:03;13.80;98.20
28654;DHT22;24320;56.980;24.336;2022-09-09T16:26:32;13.70;98.30
28654;DHT22;24320;56.980;24.336;2022-09-09T16:29:01;13.50;98.50
28654;DHT22;24320;56.980;24.336;2022-09-09T16:31:30;13.40;98.80
28654;DHT22;24320;56.980;24.336;2022-09-09T16:33:58;13.30;99.30
28654;DHT22;24320;56.980;24.336;2022-09-09T16:36:28;13.20;99.90
28654;DHT22;24320;56.980;24.336;2022-09-09T16:38:57;13.20;99.90
28654;DHT22;24320;56.980;24.336;2022-09-09T16:41:26;13.10;99.90
28654;DHT22;24320;56.980;24.336;2022-09-09T16:44:02;13.00;99.90
28654;DHT22;24320;56.980;24.336;2022-09-09T16:46:32;12.90;99.90
28654;DHT22;24320;56.980;24.336;2022-09-09T16:49:00;12.80;99.90
28654;DHT22;24320;56.980;24.336;2022-09-09T16:51:41;12.80;99.90
28654;DHT22;24320;56.980;24.336;2022-09-09T16:54:09;12.70;99.90
28654;DHT22;24320;56.980;24.336;2022-09-09T16:56:38;12.60;99.90
28654;DHT22;24320;56.980;24.336;2022-09-09T16:59:11;12.40;99.90
28654;DHT22;24320;56.980;24.336;2022-09-09T17:01:39;12.30;99.90
28654;DHT22;24320;56.980;24.336;2022-09-09T17:04:12;12.20;99.90
28654;DHT22;24320;56.980;24.336;2022-09-09T17:06:40;12.00;99.90
28654;DHT22;24320;56.980;24.336;2022-09-09T17:09:10;11.90;99.90
28654;DHT22;24320;56.980;24.336;2022-09-09T17:11:38;11.80;99.90
28654;DHT22;24320;56.980;24.336;2022-09-09T17:14:07;11.70;99.90
28654;DHT22;24320;56.980;24.336;2022-09-09T17:16:36;11.60;99.90
28654;DHT22;24320;56.980;24.336;2022-09-09T17:19:06;11.50;99.90
28654;DHT22;24320;56.980;24.336;2022-09-09T17:21:35;11.50;99.90
28654;DHT22;24320;56.980;24.336;2022-09-09T17:24:20;11.40;99.90
28654;DHT22;24320;56.980;24.336;2022-09-09T17:26:48;11.30;99.90
28654;DHT22;24320;56.980;24.336;2022-09-09T17:29:15;11.20;99.90
28654;DHT22;24320;56.980;24.336;2022-09-09T17:31:43;11.20;99.90
28654;DHT22;24320;56.980;24.336;2022-09-09T17:34:10;11.20;99.90
28654;DHT22;24320;56.980;24.336;2022-09-09T17:36:37;11.20;99.90
28654;DHT22;24320;56.980;24.336;2022-09-09T17:39:06;11.20;99.90
28654;DHT22;24320;56.980;24.336;2022-09-09T17:41:38;11.20;99.90
28654;DHT22;24320;56.980;24.336;2022-09-09T17:44:07;11.10;99.90
28654;DHT22;24320;56.980;24.336;2022-09-09T17:46:41;11.00;99.90
28654;DHT22;24320;56.980;24.336;2022-09-09T17:49:16;11.00;99.90
28654;DHT22;24320;56.980;24.336;2022-09-09T17:51:44;10.90;99.90
28654;DHT22;24320;56.980;24.336;2022-09-09T17:54:14;10.90;99.90
28654;DHT22;24320;56.980;24.336;2022-09-09T17:56:42;10.80;99.90
28654;DHT22;24320;56.980;24.336;2022-09-09T17:59:10;10.70;99.90
28654;DHT22;24320;56.980;24.336;2022-09-09T18:01:41;10.60;99.90
28654;DHT22;24320;56.980;24.336;2022-09-09T18:04:11;10.60;99.90
28654;DHT22;24320;56.980;24.336;2022-09-09T18:06:42;10.60;99.90